sensor_id;sensor_type;location;lat;lon;timestamp;temperature;humidity
57660;DHT22;43485;45.680;15.702;2023-11-19T00:00:57;3.00;64.50
57660;DHT22;43485;45.680;15.702;2023-11-19T00:03:23;3.00;64.20
57660;DHT22;43485;45.680;15.702;2023-11-19T00:05:49;3.10;64.20
57660;DHT22;43485;45.680;15.702;2023-11-19T00:08:15;3.10;64.30
57660;DHT22;43485;45.680;15.702;2023-11-19T00:10:41;3.10;64.00
57660;DHT22;43485;45.680;15.702;2023-11-19T00:13:07;3.10;64.10
57660;DHT22;43485;45.680;15.702;2023-11-19T00:15:33;3.20;64.20
57660;DHT22;43485;45.680;15.702;2023-11-19T00:17:59;3.10;64.50
57660;DHT22;43485;45.680;15.702;2023-11-19T00:20:28;3.20;64.30
57660;DHT22;43485;45.680;15.702;2023-11-19T00:22:54;3.20;64.40
57660;DHT22;43485;45.680;15.702;2023-11-19T00:25:20;3.20;64.40
57660;DHT22;43485;45.680;15.702;2023-11-19T00:27:50;3.20;64.20
57660;DHT22;43485;45.680;15.702;2023-11-19T00:30:18;3.20;64.40
57660;DHT22;43485;45.680;15.702;2023-11-19T00:32:44;3.20;63.90
57660;DHT22;43485;45.680;15.702;2023-11-19T00:35:10;3.30;64.70
57660;DHT22;43485;45.680;15.702;2023-11-19T00:37:39;3.30;64.70
57660;DHT22;43485;45.680;15.702;2023-11-19T00:40:05;3.30;64.70
57660;DHT22;43485;45.680;15.702;2023-11-19T00:42:31;3.30;64.50
57660;DHT22;43485;45.680;15.702;2023-11-19T00:44:57;3.40;64.60
57660;DHT22;43485;45.680;15.702;2023-11-19T00:47:23;3.40;64.60
57660;DHT22;43485;45.680;15.702;2023-11-19T00:49:49;3.40;64.70
57660;DHT22;43485;45.680;15.702;2023-11-19T00:52:15;3.40;64.60
57660;DHT22;43485;45.680;15.702;2023-11-19T00:54:42;3.40;64.60
57660;DHT22;43485;45.680;15.702;2023-11-19T00:57:08;3.40;64.50
57660;DHT22;43485;45.680;15.702;2023-11-19T00:59:34;3.40;64.70
57660;DHT22;43485;45.680;15.702;2023-11-19T01:02:00;3.30;64.40
57660;DHT22;43485;45.680;15.702;2023-11-19T01:07:15;3.30;64.60
57660;DHT22;43485;45.680;15.702;2023-11-19T01:09:41;3.20;64.90
57660;DHT22;43485;45.680;15.702;2023-11-19T01:12:08;3.20;64.70
57660;DHT22;43485;45.680;15.702;2023-11-19T01:14:35;3.20;64.70
57660;DHT22;43485;45.680;15.702;2023-11-19T01:17:02;3.20;64.90
57660;DHT22;43485;45.680;15.702;2023-11-19T01:19:28;3.30;65.00
57660;DHT22;43485;45.680;15.702;2023-11-19T01:21:54;3.20;64.70
57660;DHT22;43485;45.680;15.702;2023-11-19T01:24:20;3.20;64.00
57660;DHT22;43485;45.680;15.702;2023-11-19T01:26:46;3.30;64.10
57660;DHT22;43485;45.680;15.702;2023-11-19T01:29:12;3.30;64.70
57660;DHT22;43485;45.680;15.702;2023-11-19T01:31:40;3.30;64.10
57660;DHT22;43485;45.680;15.702;2023-11-19T01:34:06;3.30;64.10
57660;DHT22;43485;45.680;15.702;2023-11-19T01:36:32;3.40;64.10
57660;DHT22;43485;45.680;15.702;2023-11-19T01:38:58;3.40;64.20
57660;DHT22;43485;45.680;15.702;2023-11-19T01:41:24;3.40;64.30
57660;DHT22;43485;45.680;15.702;2023-11-19T01:43:50;3.40;64.40
57660;DHT22;43485;45.680;15.702;2023-11-19T01:46:16;3.50;64.50
57660;DHT22;43485;45.680;15.702;2023-11-19T01:51:27;3.50;64.40
57660;DHT22;43485;45.680;15.702;2023-11-19T01:53:54;3.50;63.60
57660;DHT22;43485;45.680;15.702;2023-11-19T01:56:22;3.50;64.30
57660;DHT22;43485;45.680;15.702;2023-11-19T01:58:48;3.50;64.20
57660;DHT22;43485;45.680;15.702;2023-11-19T02:01:15;3.50;64.20
57660;DHT22;43485;45.680;15.702;2023-11-19T02:03:41;3.60;64.40
57660;DHT22;43485;45.680;15.702;2023-11-19T02:06:08;3.60;64.40
57660;DHT22;43485;45.680;15.702;2023-11-19T02:08:35;3.60;63.80
57660;DHT22;43485;45.680;15.702;2023-11-19T02:11:02;3.60;64.40
57660;DHT22;43485;45.680;15.702;2023-11-19T02:13:28;3.60;64.40
57660;DHT22;43485;45.680;15.702;2023-11-19T02:15:54;3.60;64.40
57660;DHT22;43485;45.680;15.702;2023-11-19T02:18:38;3.70;64.40
57660;DHT22;43485;45.680;15.702;2023-11-19T02:21:04;3.70;64.70
57660;DHT22;43485;45.680;15.702;2023-11-19T02:23:30;3.60;63.80
57660;DHT22;43485;45.680;15.702;2023-11-19T02:29:00;3.60;64.70
57660;DHT22;43485;45.680;15.702;2023-11-19T02:31:25;3.70;64.90
57660;DHT22;43485;45.680;15.702;2023-11-19T02:33:52;3.70;64.90
57660;DHT22;43485;45.680;15.702;2023-11-19T02:36:18;3.70;64.80
57660;DHT22;43485;45.680;15.702;2023-11-19T02:38:44;3.70;64.70
57660;DHT22;43485;45.680;15.702;2023-11-19T02:41:10;3.60;64.90
57660;DHT22;43485;45.680;15.702;2023-11-19T02:43:36;3.60;64.90
57660;DHT22;43485;45.680;15.702;2023-11-19T02:46:03;3.70;64.90
57660;DHT22;43485;45.680;15.702;2023-11-19T02:48:49;3.60;64.90
57660;DHT22;43485;45.680;15.702;2023-11-19T02:51:15;3.70;65.20
57660;DHT22;43485;45.680;15.702;2023-11-19T02:53:41;3.70;65.00
57660;DHT22;43485;45.680;15.702;2023-11-19T02:56:09;3.60;65.00
57660;DHT22;43485;45.680;15.702;2023-11-19T02:58:50;3.60;65.10
57660;DHT22;43485;45.680;15.702;2023-11-19T03:04:01;3.60;65.30
57660;DHT22;43485;45.680;15.702;2023-11-19T03:06:27;3.60;65.50
57660;DHT22;43485;45.680;15.702;2023-11-19T03:11:38;3.60;65.50
57660;DHT22;43485;45.680;15.702;2023-11-19T03:14:04;3.60;65.70
57660;DHT22;43485;45.680;15.702;2023-11-19T03:16:30;3.60;65.80
57660;DHT22;43485;45.680;15.702;2023-11-19T03:18:56;3.60;66.00
57660;DHT22;43485;45.680;15.702;2023-11-19T03:24:06;3.50;66.10
57660;DHT22;43485;45.680;15.702;2023-11-19T03:26:33;3.50;66.30
57660;DHT22;43485;45.680;15.702;2023-11-19T03:28:59;3.50;66.30
57660;DHT22;43485;45.680;15.702;2023-11-19T03:31:26;3.40;66.60
57660;DHT22;43485;45.680;15.702;2023-11-19T03:33:52;3.30;66.80
57660;DHT22;43485;45.680;15.702;2023-11-19T03:36:18;3.30;66.90
57660;DHT22;43485;45.680;15.702;2023-11-19T03:38:44;3.20;67.00
57660;DHT22;43485;45.680;15.702;2023-11-19T03:41:11;3.20;67.10
57660;DHT22;43485;45.680;15.702;2023-11-19T03:43:38;3.20;67.00
57660;DHT22;43485;45.680;15.702;2023-11-19T03:46:04;3.20;67.20
57660;DHT22;43485;45.680;15.702;2023-11-19T03:48:31;3.10;67.20
57660;DHT22;43485;45.680;15.702;2023-11-19T03:50:57;3.10;67.80
57660;DHT22;43485;45.680;15.702;2023-11-19T03:53:22;3.10;68.60
57660;DHT22;43485;45.680;15.702;2023-11-19T03:55:49;3.10;69.00
57660;DHT22;43485;45.680;15.702;2023-11-19T03:58:15;3.20;68.50
57660;DHT22;43485;45.680;15.702;2023-11-19T04:00:41;3.20;68.10
57660;DHT22;43485;45.680;15.702;2023-11-19T04:03:07;3.30;68.00
57660;DHT22;43485;45.680;15.702;2023-11-19T04:05:33;3.30;67.60
57660;DHT22;43485;45.680;15.702;2023-11-19T04:07:59;3.30;67.40
57660;DHT22;43485;45.680;15.702;2023-11-19T04:10:25;3.30;67.40
57660;DHT22;43485;45.680;15.702;2023-11-19T04:12:52;3.30;67.30
57660;DHT22;43485;45.680;15.702;2023-11-19T04:15:18;3.20;67.40
57660;DHT22;43485;45.680;15.702;2023-11-19T04:17:44;3.20;67.50
57660;DHT22;43485;45.680;15.702;2023-11-19T04:20:10;3.10;67.60
57660;DHT22;43485;45.680;15.702;2023-11-19T04:22:38;3.10;67.50
57660;DHT22;43485;45.680;15.702;2023-11-19T04:25:05;3.00;67.30
57660;DHT22;43485;45.680;15.702;2023-11-19T04:27:31;3.00;67.40
57660;DHT22;43485;45.680;15.702;2023-11-19T04:29:57;3.10;67.80
57660;DHT22;43485;45.680;15.702;2023-11-19T04:32:23;3.10;67.80
57660;DHT22;43485;45.680;15.702;2023-11-19T04:34:50;3.10;67.70
57660;DHT22;43485;45.680;15.702;2023-11-19T04:37:16;3.20;67.60
57660;DHT22;43485;45.680;15.702;2023-11-19T04:39:44;3.20;67.50
57660;DHT22;43485;45.680;15.702;2023-11-19T04:42:10;3.20;67.40
57660;DHT22;43485;45.680;15.702;2023-11-19T04:44:36;3.20;67.40
57660;DHT22;43485;45.680;15.702;2023-11-19T04:47:02;3.20;67.60
57660;DHT22;43485;45.680;15.702;2023-11-19T04:49:28;3.20;67.60
57660;DHT22;43485;45.680;15.702;2023-11-19T04:51:55;3.20;67.80
57660;DHT22;43485;45.680;15.702;2023-11-19T04:54:21;3.30;67.70
57660;DHT22;43485;45.680;15.702;2023-11-19T04:56:47;3.30;67.80
57660;DHT22;43485;45.680;15.702;2023-11-19T04:59:14;3.30;67.70
57660;DHT22;43485;45.680;15.702;2023-11-19T05:01:40;3.30;67.70
57660;DHT22;43485;45.680;15.702;2023-11-19T05:04:07;3.20;67.00
57660;DHT22;43485;45.680;15.702;2023-11-19T05:06:33;3.20;67.50
57660;DHT22;43485;45.680;15.702;2023-11-19T05:09:00;3.30;67.70
57660;DHT22;43485;45.680;15.702;2023-11-19T05:11:26;3.30;67.60
57660;DHT22;43485;45.680;15.702;2023-11-19T05:13:53;3.30;67.10
57660;DHT22;43485;45.680;15.702;2023-11-19T05:16:19;3.30;67.60
57660;DHT22;43485;45.680;15.702;2023-11-19T05:18:46;3.40;67.10
57660;DHT22;43485;45.680;15.702;2023-11-19T05:21:12;3.30;67.70
57660;DHT22;43485;45.680;15.702;2023-11-19T05:23:38;3.30;68.00
57660;DHT22;43485;45.680;15.702;2023-11-19T05:26:04;3.30;69.00
57660;DHT22;43485;45.680;15.702;2023-11-19T05:28:31;3.30;68.50
57660;DHT22;43485;45.680;15.702;2023-11-19T05:30:57;3.30;68.50
57660;DHT22;43485;45.680;15.702;2023-11-19T05:33:23;3.30;67.90
57660;DHT22;43485;45.680;15.702;2023-11-19T05:35:48;3.30;68.60
57660;DHT22;43485;45.680;15.702;2023-11-19T05:38:14;3.40;68.70
57660;DHT22;43485;45.680;15.702;2023-11-19T05:43:26;3.40;68.20
57660;DHT22;43485;45.680;15.702;2023-11-19T05:45:52;3.50;68.30
57660;DHT22;43485;45.680;15.702;2023-11-19T05:48:17;3.50;68.10
57660;DHT22;43485;45.680;15.702;2023-11-19T05:50:43;3.40;68.60
57660;DHT22;43485;45.680;15.702;2023-11-19T05:53:10;3.30;68.90
57660;DHT22;43485;45.680;15.702;2023-11-19T05:55:36;3.30;68.80
57660;DHT22;43485;45.680;15.702;2023-11-19T05:58:10;3.40;68.40
57660;DHT22;43485;45.680;15.702;2023-11-19T06:00:38;3.40;68.30
57660;DHT22;43485;45.680;15.702;2023-11-19T06:03:05;3.40;68.30
57660;DHT22;43485;45.680;15.702;2023-11-19T06:05:32;3.40;68.30
57660;DHT22;43485;45.680;15.702;2023-11-19T06:07:58;3.50;68.40
57660;DHT22;43485;45.680;15.702;2023-11-19T06:10:24;3.50;68.50
57660;DHT22;43485;45.680;15.702;2023-11-19T06:13:10;3.60;68.30
57660;DHT22;43485;45.680;15.702;2023-11-19T06:15:36;3.60;68.50
57660;DHT22;43485;45.680;15.702;2023-11-19T06:18:02;3.60;68.60
57660;DHT22;43485;45.680;15.702;2023-11-19T06:20:29;3.60;68.30
57660;DHT22;43485;45.680;15.702;2023-11-19T06:22:56;3.60;68.20
57660;DHT22;43485;45.680;15.702;2023-11-19T06:25:22;3.70;68.10
57660;DHT22;43485;45.680;15.702;2023-11-19T06:27:49;3.70;67.90
57660;DHT22;43485;45.680;15.702;2023-11-19T06:30:15;3.70;67.90
57660;DHT22;43485;45.680;15.702;2023-11-19T06:32:41;3.80;69.20
57660;DHT22;43485;45.680;15.702;2023-11-19T06:35:07;3.80;67.50
57660;DHT22;43485;45.680;15.702;2023-11-19T06:37:35;3.90;68.10
57660;DHT22;43485;45.680;15.702;2023-11-19T06:40:01;3.90;68.10
57660;DHT22;43485;45.680;15.702;2023-11-19T06:42:30;3.90;68.00
57660;DHT22;43485;45.680;15.702;2023-11-19T06:44:56;3.90;68.20
57660;DHT22;43485;45.680;15.702;2023-11-19T06:47:25;3.90;67.90
57660;DHT22;43485;45.680;15.702;2023-11-19T06:49:52;4.00;67.90
57660;DHT22;43485;45.680;15.702;2023-11-19T06:52:18;4.00;68.20
57660;DHT22;43485;45.680;15.702;2023-11-19T06:54:44;4.00;68.10
57660;DHT22;43485;45.680;15.702;2023-11-19T06:57:13;4.10;68.10
57660;DHT22;43485;45.680;15.702;2023-11-19T06:59:39;4.10;68.10
57660;DHT22;43485;45.680;15.702;2023-11-19T07:02:05;4.20;67.90
57660;DHT22;43485;45.680;15.702;2023-11-19T07:04:32;4.30;68.10
57660;DHT22;43485;45.680;15.702;2023-11-19T07:06:58;4.20;68.70
57660;DHT22;43485;45.680;15.702;2023-11-19T07:09:26;4.20;68.60
57660;DHT22;43485;45.680;15.702;2023-11-19T07:11:52;4.10;69.20
57660;DHT22;43485;45.680;15.702;2023-11-19T07:14:19;4.30;69.60
57660;DHT22;43485;45.680;15.702;2023-11-19T07:16:45;4.30;68.60
57660;DHT22;43485;45.680;15.702;2023-11-19T07:19:11;4.40;68.20
57660;DHT22;43485;45.680;15.702;2023-11-19T07:21:40;4.50;67.80
57660;DHT22;43485;45.680;15.702;2023-11-19T07:24:09;4.60;68.20
57660;DHT22;43485;45.680;15.702;2023-11-19T07:26:36;4.60;68.10
57660;DHT22;43485;45.680;15.702;2023-11-19T07:29:02;4.70;68.00
57660;DHT22;43485;45.680;15.702;2023-11-19T07:31:32;4.70;67.40
57660;DHT22;43485;45.680;15.702;2023-11-19T07:33:58;4.80;68.20
57660;DHT22;43485;45.680;15.702;2023-11-19T07:36:24;4.80;68.00
57660;DHT22;43485;45.680;15.702;2023-11-19T07:38:50;4.90;67.80
57660;DHT22;43485;45.680;15.702;2023-11-19T07:41:16;4.90;67.70
57660;DHT22;43485;45.680;15.702;2023-11-19T07:43:48;5.00;67.40
57660;DHT22;43485;45.680;15.702;2023-11-19T07:46:16;5.00;67.10
57660;DHT22;43485;45.680;15.702;2023-11-19T07:48:41;5.00;67.40
57660;DHT22;43485;45.680;15.702;2023-11-19T07:51:07;5.00;67.20
57660;DHT22;43485;45.680;15.702;2023-11-19T07:53:33;5.00;67.30
57660;DHT22;43485;45.680;15.702;2023-11-19T07:56:00;5.00;67.00
57660;DHT22;43485;45.680;15.702;2023-11-19T07:58:26;5.00;67.00
57660;DHT22;43485;45.680;15.702;2023-11-19T08:00:55;5.10;67.40
57660;DHT22;43485;45.680;15.702;2023-11-19T08:03:21;5.10;67.50
57660;DHT22;43485;45.680;15.702;2023-11-19T08:05:47;5.10;67.00
57660;DHT22;43485;45.680;15.702;2023-11-19T08:08:14;5.20;67.40
57660;DHT22;43485;45.680;15.702;2023-11-19T08:10:40;5.30;67.40
57660;DHT22;43485;45.680;15.702;2023-11-19T08:13:06;5.40;67.20
57660;DHT22;43485;45.680;15.702;2023-11-19T08:15:32;5.40;66.50
57660;DHT22;43485;45.680;15.702;2023-11-19T08:17:58;5.50;66.30
57660;DHT22;43485;45.680;15.702;2023-11-19T08:20:24;5.70;66.90
57660;DHT22;43485;45.680;15.702;2023-11-19T08:22:50;5.80;66.60
57660;DHT22;43485;45.680;15.702;2023-11-19T08:25:16;5.90;66.80
57660;DHT22;43485;45.680;15.702;2023-11-19T08:27:42;5.90;66.60
57660;DHT22;43485;45.680;15.702;2023-11-19T08:30:08;6.00;66.80
57660;DHT22;43485;45.680;15.702;2023-11-19T08:32:34;6.00;66.00
57660;DHT22;43485;45.680;15.702;2023-11-19T08:35:01;6.10;66.00
57660;DHT22;43485;45.680;15.702;2023-11-19T08:37:27;6.20;66.40
57660;DHT22;43485;45.680;15.702;2023-11-19T08:39:53;6.30;66.30
57660;DHT22;43485;45.680;15.702;2023-11-19T08:42:19;6.30;66.00
57660;DHT22;43485;45.680;15.702;2023-11-19T08:47:31;6.50;65.50
57660;DHT22;43485;45.680;15.702;2023-11-19T08:49:57;6.60;64.90
57660;DHT22;43485;45.680;15.702;2023-11-19T08:52:23;6.70;64.90
57660;DHT22;43485;45.680;15.702;2023-11-19T08:54:49;6.80;64.40
57660;DHT22;43485;45.680;15.702;2023-11-19T08:57:15;6.80;64.40
57660;DHT22;43485;45.680;15.702;2023-11-19T08:59:41;6.80;64.70
57660;DHT22;43485;45.680;15.702;2023-11-19T09:02:07;6.80;64.60
57660;DHT22;43485;45.680;15.702;2023-11-19T09:04:33;6.80;64.90
57660;DHT22;43485;45.680;15.702;2023-11-19T09:06:59;6.80;64.90
57660;DHT22;43485;45.680;15.702;2023-11-19T09:09:25;6.70;65.40
57660;DHT22;43485;45.680;15.702;2023-11-19T09:11:51;6.50;65.60
57660;DHT22;43485;45.680;15.702;2023-11-19T09:14:17;6.50;66.20
57660;DHT22;43485;45.680;15.702;2023-11-19T09:16:43;6.50;66.20
57660;DHT22;43485;45.680;15.702;2023-11-19T09:19:09;6.40;66.00
57660;DHT22;43485;45.680;15.702;2023-11-19T09:21:35;6.50;65.70
57660;DHT22;43485;45.680;15.702;2023-11-19T09:24:04;6.50;65.30
57660;DHT22;43485;45.680;15.702;2023-11-19T09:26:30;6.60;64.90
57660;DHT22;43485;45.680;15.702;2023-11-19T09:28:56;6.70;64.50
57660;DHT22;43485;45.680;15.702;2023-11-19T09:31:22;6.80;64.90
57660;DHT22;43485;45.680;15.702;2023-11-19T09:33:48;6.90;64.80
57660;DHT22;43485;45.680;15.702;2023-11-19T09:36:13;7.00;63.70
57660;DHT22;43485;45.680;15.702;2023-11-19T09:41:29;7.50;63.00
57660;DHT22;43485;45.680;15.702;2023-11-19T09:43:56;7.80;62.00
57660;DHT22;43485;45.680;15.702;2023-11-19T09:46:22;8.20;61.70
57660;DHT22;43485;45.680;15.702;2023-11-19T09:48:49;8.70;60.60
57660;DHT22;43485;45.680;15.702;2023-11-19T09:51:19;9.00;59.30
57660;DHT22;43485;45.680;15.702;2023-11-19T09:53:46;9.30;58.20
57660;DHT22;43485;45.680;15.702;2023-11-19T09:56:12;9.50;58.10
57660;DHT22;43485;45.680;15.702;2023-11-19T09:58:38;9.70;57.90
57660;DHT22;43485;45.680;15.702;2023-11-19T10:01:05;9.70;56.60
57660;DHT22;43485;45.680;15.702;2023-11-19T10:03:35;9.60;55.20
57660;DHT22;43485;45.680;15.702;2023-11-19T10:08:51;9.80;55.20
57660;DHT22;43485;45.680;15.702;2023-11-19T10:11:17;10.00;54.20
57660;DHT22;43485;45.680;15.702;2023-11-19T10:13:43;10.20;53.70
57660;DHT22;43485;45.680;15.702;2023-11-19T10:16:13;10.40;52.00
57660;DHT22;43485;45.680;15.702;2023-11-19T10:21:24;10.20;52.50
57660;DHT22;43485;45.680;15.702;2023-11-19T10:23:51;10.00;52.30
57660;DHT22;43485;45.680;15.702;2023-11-19T10:26:18;9.90;52.50
57660;DHT22;43485;45.680;15.702;2023-11-19T10:28:48;9.90;52.50
57660;DHT22;43485;45.680;15.702;2023-11-19T10:31:14;9.90;52.90
57660;DHT22;43485;45.680;15.702;2023-11-19T10:33:41;9.90;52.40
57660;DHT22;43485;45.680;15.702;2023-11-19T10:36:09;10.00;52.10
57660;DHT22;43485;45.680;15.702;2023-11-19T10:38:35;10.10;52.00
57660;DHT22;43485;45.680;15.702;2023-11-19T10:41:01;10.10;51.10
57660;DHT22;43485;45.680;15.702;2023-11-19T10:43:27;10.00;49.70
57660;DHT22;43485;45.680;15.702;2023-11-19T10:45:53;10.10;50.70
57660;DHT22;43485;45.680;15.702;2023-11-19T10:48:19;10.20;51.20
57660;DHT22;43485;45.680;15.702;2023-11-19T10:50:49;10.10;51.50
57660;DHT22;43485;45.680;15.702;2023-11-19T10:53:19;10.00;51.20
57660;DHT22;43485;45.680;15.702;2023-11-19T10:55:46;9.90;51.20
57660;DHT22;43485;45.680;15.702;2023-11-19T10:58:15;9.90;49.90
57660;DHT22;43485;45.680;15.702;2023-11-19T11:03:32;9.90;50.30
57660;DHT22;43485;45.680;15.702;2023-11-19T11:06:02;9.90;51.10
57660;DHT22;43485;45.680;15.702;2023-11-19T11:08:29;9.90;50.60
57660;DHT22;43485;45.680;15.702;2023-11-19T11:10:56;9.80;50.80
57660;DHT22;43485;45.680;15.702;2023-11-19T11:13:24;9.70;51.10
57660;DHT22;43485;45.680;15.702;2023-11-19T11:15:52;9.70;50.80
57660;DHT22;43485;45.680;15.702;2023-11-19T11:18:20;9.80;50.50
57660;DHT22;43485;45.680;15.702;2023-11-19T11:20:45;9.80;51.10
57660;DHT22;43485;45.680;15.702;2023-11-19T11:36:58;9.60;52.40
57660;DHT22;43485;45.680;15.702;2023-11-19T11:39:51;9.60;51.80
57660;DHT22;43485;45.680;15.702;2023-11-19T11:50:54;9.80;52.00
57660;DHT22;43485;45.680;15.702;2023-11-19T11:53:22;9.80;51.60
57660;DHT22;43485;45.680;15.702;2023-11-19T12:01:01;10.00;51.00
57660;DHT22;43485;45.680;15.702;2023-11-19T12:03:28;10.00;50.80
57660;DHT22;43485;45.680;15.702;2023-11-19T12:05:55;9.90;50.50
57660;DHT22;43485;45.680;15.702;2023-11-19T12:08:24;9.90;51.30
57660;DHT22;43485;45.680;15.702;2023-11-19T12:10:52;10.00;51.00
57660;DHT22;43485;45.680;15.702;2023-11-19T12:13:19;10.10;50.60
57660;DHT22;43485;45.680;15.702;2023-11-19T12:18:30;10.20;51.30
57660;DHT22;43485;45.680;15.702;2023-11-19T12:20:57;10.30;50.70
57660;DHT22;43485;45.680;15.702;2023-11-19T12:23:28;10.30;50.70
57660;DHT22;43485;45.680;15.702;2023-11-19T12:25:55;10.30;50.60
57660;DHT22;43485;45.680;15.702;2023-11-19T12:28:21;10.30;50.50
57660;DHT22;43485;45.680;15.702;2023-11-19T12:30:49;11.00;49.80
57660;DHT22;43485;45.680;15.702;2023-11-19T12:33:16;11.60;47.40
57660;DHT22;43485;45.680;15.702;2023-11-19T12:38:30;12.10;46.50
57660;DHT22;43485;45.680;15.702;2023-11-19T12:43:45;11.90;46.60
57660;DHT22;43485;45.680;15.702;2023-11-19T12:48:57;12.00;46.80
57660;DHT22;43485;45.680;15.702;2023-11-19T12:51:23;12.50;46.30
57660;DHT22;43485;45.680;15.702;2023-11-19T12:53:56;12.60;45.70
57660;DHT22;43485;45.680;15.702;2023-11-19T12:56:23;12.50;45.60
57660;DHT22;43485;45.680;15.702;2023-11-19T12:58:50;12.70;45.50
57660;DHT22;43485;45.680;15.702;2023-11-19T13:01:18;12.70;44.20
57660;DHT22;43485;45.680;15.702;2023-11-19T13:03:45;14.10;41.90
57660;DHT22;43485;45.680;15.702;2023-11-19T13:06:13;15.50;39.00
57660;DHT22;43485;45.680;15.702;2023-11-19T13:08:41;18.10;34.80
57660;DHT22;43485;45.680;15.702;2023-11-19T13:11:34;19.50;30.80
57660;DHT22;43485;45.680;15.702;2023-11-19T13:14:02;19.30;31.30
57660;DHT22;43485;45.680;15.702;2023-11-19T13:16:47;19.40;31.20
57660;DHT22;43485;45.680;15.702;2023-11-19T13:21:58;18.50;31.70
57660;DHT22;43485;45.680;15.702;2023-11-19T13:24:24;18.20;32.50
57660;DHT22;43485;45.680;15.702;2023-11-19T13:26:50;18.00;33.50
57660;DHT22;43485;45.680;15.702;2023-11-19T13:29:16;18.60;32.70
57660;DHT22;43485;45.680;15.702;2023-11-19T13:31:42;20.00;29.80
57660;DHT22;43485;45.680;15.702;2023-11-19T13:34:08;20.80;29.10
57660;DHT22;43485;45.680;15.702;2023-11-19T13:36:34;20.70;28.80
57660;DHT22;43485;45.680;15.702;2023-11-19T13:39:00;20.60;29.10
57660;DHT22;43485;45.680;15.702;2023-11-19T13:41:26;20.40;29.10
57660;DHT22;43485;45.680;15.702;2023-11-19T13:43:52;19.40;30.00
57660;DHT22;43485;45.680;15.702;2023-11-19T13:46:19;18.40;31.90
57660;DHT22;43485;45.680;15.702;2023-11-19T13:48:45;17.60;33.10
57660;DHT22;43485;45.680;15.702;2023-11-19T13:51:11;17.40;33.80
57660;DHT22;43485;45.680;15.702;2023-11-19T13:53:37;16.80;34.40
57660;DHT22;43485;45.680;15.702;2023-11-19T13:56:03;16.20;35.10
57660;DHT22;43485;45.680;15.702;2023-11-19T13:58:29;15.70;35.20
57660;DHT22;43485;45.680;15.702;2023-11-19T14:00:55;15.40;36.50
57660;DHT22;43485;45.680;15.702;2023-11-19T14:03:21;15.00;37.60
57660;DHT22;43485;45.680;15.702;2023-11-19T14:05:47;14.70;38.60
57660;DHT22;43485;45.680;15.702;2023-11-19T14:08:14;14.40;39.30
57660;DHT22;43485;45.680;15.702;2023-11-19T14:10:40;14.10;39.70
57660;DHT22;43485;45.680;15.702;2023-11-19T14:13:07;13.90;40.30
57660;DHT22;43485;45.680;15.702;2023-11-19T14:15:33;13.70;40.50
57660;DHT22;43485;45.680;15.702;2023-11-19T14:17:59;13.50;41.50
57660;DHT22;43485;45.680;15.702;2023-11-19T14:20:25;13.20;41.30
57660;DHT22;43485;45.680;15.702;2023-11-19T14:22:51;13.10;42.50
57660;DHT22;43485;45.680;15.702;2023-11-19T14:25:18;13.00;43.10
57660;DHT22;43485;45.680;15.702;2023-11-19T14:27:44;12.80;43.00
57660;DHT22;43485;45.680;15.702;2023-11-19T14:30:13;12.60;43.50
57660;DHT22;43485;45.680;15.702;2023-11-19T14:32:40;12.60;44.00
57660;DHT22;43485;45.680;15.702;2023-11-19T14:35:11;12.60;43.60
57660;DHT22;43485;45.680;15.702;2023-11-19T14:37:37;12.50;44.00
57660;DHT22;43485;45.680;15.702;2023-11-19T14:40:03;12.40;44.70
57660;DHT22;43485;45.680;15.702;2023-11-19T14:42:31;12.20;45.00
57660;DHT22;43485;45.680;15.702;2023-11-19T14:44:57;12.00;44.90
57660;DHT22;43485;45.680;15.702;2023-11-19T14:47:24;11.90;46.10
57660;DHT22;43485;45.680;15.702;2023-11-19T14:49:50;11.80;46.70
57660;DHT22;43485;45.680;15.702;2023-11-19T14:52:16;11.70;47.20
57660;DHT22;43485;45.680;15.702;2023-11-19T14:54:42;11.60;47.20
57660;DHT22;43485;45.680;15.702;2023-11-19T14:57:08;11.50;47.50
57660;DHT22;43485;45.680;15.702;2023-11-19T14:59:34;11.40;47.70
57660;DHT22;43485;45.680;15.702;2023-11-19T15:02:19;11.20;47.90
57660;DHT22;43485;45.680;15.702;2023-11-19T15:04:45;11.20;48.60
57660;DHT22;43485;45.680;15.702;2023-11-19T15:07:11;11.00;48.80
57660;DHT22;43485;45.680;15.702;2023-11-19T15:09:37;10.90;49.20
57660;DHT22;43485;45.680;15.702;2023-11-19T15:12:03;10.80;49.50
57660;DHT22;43485;45.680;15.702;2023-11-19T15:14:30;10.70;49.90
57660;DHT22;43485;45.680;15.702;2023-11-19T15:16:56;10.50;50.40
57660;DHT22;43485;45.680;15.702;2023-11-19T15:19:23;10.50;51.60
57660;DHT22;43485;45.680;15.702;2023-11-19T15:21:49;10.40;50.70
57660;DHT22;43485;45.680;15.702;2023-11-19T15:24:15;10.30;51.00
57660;DHT22;43485;45.680;15.702;2023-11-19T15:26:41;10.20;51.30
57660;DHT22;43485;45.680;15.702;2023-11-19T15:29:06;10.00;51.40
57660;DHT22;43485;45.680;15.702;2023-11-19T15:31:32;10.00;51.60
57660;DHT22;43485;45.680;15.702;2023-11-19T15:33:58;9.90;51.90
57660;DHT22;43485;45.680;15.702;2023-11-19T15:36:24;9.80;52.40
57660;DHT22;43485;45.680;15.702;2023-11-19T15:38:50;9.70;52.70
57660;DHT22;43485;45.680;15.702;2023-11-19T15:41:16;9.50;53.00
57660;DHT22;43485;45.680;15.702;2023-11-19T15:43:42;9.40;53.30
57660;DHT22;43485;45.680;15.702;2023-11-19T15:46:08;9.30;53.30
57660;DHT22;43485;45.680;15.702;2023-11-19T15:48:35;9.20;54.00
57660;DHT22;43485;45.680;15.702;2023-11-19T15:51:01;9.10;53.60
57660;DHT22;43485;45.680;15.702;2023-11-19T15:56:13;8.90;55.00
57660;DHT22;43485;45.680;15.702;2023-11-19T15:58:39;8.60;54.80
57660;DHT22;43485;45.680;15.702;2023-11-19T16:01:05;8.60;55.90
57660;DHT22;43485;45.680;15.702;2023-11-19T16:03:32;8.40;55.60
57660;DHT22;43485;45.680;15.702;2023-11-19T16:05:58;8.40;56.50
57660;DHT22;43485;45.680;15.702;2023-11-19T16:08:24;8.30;56.90
57660;DHT22;43485;45.680;15.702;2023-11-19T16:10:50;8.20;57.10
57660;DHT22;43485;45.680;15.702;2023-11-19T16:13:16;8.10;56.70
57660;DHT22;43485;45.680;15.702;2023-11-19T16:15:42;8.10;57.00
57660;DHT22;43485;45.680;15.702;2023-11-19T16:18:08;8.00;57.20
57660;DHT22;43485;45.680;15.702;2023-11-19T16:20:35;8.00;57.20
57660;DHT22;43485;45.680;15.702;2023-11-19T16:23:01;7.90;57.70
57660;DHT22;43485;45.680;15.702;2023-11-19T16:25:29;7.70;57.40
57660;DHT22;43485;45.680;15.702;2023-11-19T16:27:55;7.70;58.80
57660;DHT22;43485;45.680;15.702;2023-11-19T16:30:21;7.50;58.90
57660;DHT22;43485;45.680;15.702;2023-11-19T16:32:50;7.50;59.40
57660;DHT22;43485;45.680;15.702;2023-11-19T16:35:35;7.40;59.10
57660;DHT22;43485;45.680;15.702;2023-11-19T16:38:01;7.40;59.30
57660;DHT22;43485;45.680;15.702;2023-11-19T16:40:27;7.30;59.20
57660;DHT22;43485;45.680;15.702;2023-11-19T16:42:53;7.20;59.50